sensor_id;sensor_type;location;lat;lon;timestamp;pressure;altitude;pressure_sealevel;temperature;humidity
51287;BME280;37364;46.974;18.916;2023-01-26T02:06:13;150610.09;;;1.02;100.00
51287;BME280;37364;46.974;18.916;2023-01-26T02:08:47;150586.94;;;0.93;100.00
51287;BME280;37364;46.974;18.916;2023-01-26T02:12:02;150604.94;;;1.00;100.00
51287;BME280;37364;46.974;18.916;2023-01-26T02:14:54;150604.94;;;1.00;100.00
51287;BME280;37364;46.974;18.916;2023-01-26T02:17:36;150613.91;;;1.04;100.00
51287;BME280;37364;46.974;18.916;2023-01-26T02:20:15;150580.53;;;0.90;100.00
51287;BME280;37364;46.974;18.916;2023-01-26T02:22:56;150586.94;;;0.93;100.00
51287;BME280;37364;46.974;18.916;2023-01-26T02:25:38;150595.94;;;0.96;100.00
51287;BME280;37364;46.974;18.916;2023-01-26T02:28:13;150589.47;;;0.94;100.00
51287;BME280;37364;46.974;18.916;2023-01-26T02:30:44;150597.22;;;0.97;100.00
51287;BME280;37364;46.974;18.916;2023-01-26T02:33:17;150594.63;;;0.96;100.00
51287;BME280;37364;46.974;18.916;2023-01-26T02:35:48;150575.38;;;0.88;100.00
51287;BME280;37364;46.974;18.916;2023-01-26T02:38:21;150574.06;;;0.88;100.00
51287;BME280;37364;46.974;18.916;2023-01-26T02:40:55;150563.78;;;0.84;100.00
51287;BME280;37364;46.974;18.916;2023-01-26T02:43:28;150566.38;;;0.85;100.00
51287;BME280;37364;46.974;18.916;2023-01-26T02:45:57;150565.06;;;0.84;100.00
51287;BME280;37364;46.974;18.916;2023-01-26T02:48:28;150559.91;;;0.82;100.00
51287;BME280;37364;46.974;18.916;2023-01-26T02:51:10;150561.25;;;0.83;100.00
51287;BME280;37364;46.974;18.916;2023-01-26T02:53:42;150562.50;;;0.83;100.00
51287;BME280;37364;46.974;18.916;2023-01-26T02:56:13;150586.94;;;0.93;100.00
51287;BME280;37364;46.974;18.916;2023-01-26T02:58:43;150557.38;;;0.81;100.00
51287;BME280;37364;46.974;18.916;2023-01-26T03:01:14;150549.66;;;0.78;100.00
51287;BME280;37364;46.974;18.916;2023-01-26T03:03:48;150531.69;;;0.71;100.00
51287;BME280;37364;46.974;18.916;2023-01-26T03:06:21;150525.22;;;0.68;100.00
51287;BME280;37364;46.974;18.916;2023-01-26T03:08:52;150557.38;;;0.81;100.00
51287;BME280;37364;46.974;18.916;2023-01-26T03:11:22;150557.38;;;0.81;100.00
51287;BME280;37364;46.974;18.916;2023-01-26T03:14:12;150530.38;;;0.70;100.00
51287;BME280;37364;46.974;18.916;2023-01-26T03:16:42;150521.41;;;0.67;100.00
51287;BME280;37364;46.974;18.916;2023-01-26T03:19:14;150520.09;;;0.66;100.00
51287;BME280;37364;46.974;18.916;2023-01-26T03:21:57;150511.09;;;0.63;100.00
51287;BME280;37364;46.974;18.916;2023-01-26T03:24:40;150504.69;;;0.60;100.00
51287;BME280;37364;46.974;18.916;2023-01-26T03:27:22;150509.81;;;0.62;100.00
51287;BME280;37364;46.974;18.916;2023-01-26T03:30:05;150525.22;;;0.68;100.00
51287;BME280;37364;46.974;18.916;2023-01-26T03:32:36;150520.09;;;0.66;100.00
51287;BME280;37364;46.974;18.916;2023-01-26T03:35:11;150504.69;;;0.60;100.00
51287;BME280;37364;46.974;18.916;2023-01-26T03:37:49;150511.09;;;0.63;100.00
51287;BME280;37364;46.974;18.916;2023-01-26T03:40:43;150530.38;;;0.70;100.00
51287;BME280;37364;46.974;18.916;2023-01-26T03:43:26;150525.22;;;0.68;100.00
51287;BME280;37364;46.974;18.916;2023-01-26T03:46:12;150536.81;;;0.73;100.00
51287;BME280;37364;46.974;18.916;2023-01-26T03:48:55;150534.22;;;0.72;100.00
51287;BME280;37364;46.974;18.916;2023-01-26T03:51:37;150543.22;;;0.75;100.00
51287;BME280;37364;46.974;18.916;2023-01-26T03:54:20;150541.97;;;0.75;100.00
51287;BME280;37364;46.974;18.916;2023-01-26T03:57:03;150538.09;;;0.73;100.00
51287;BME280;37364;46.974;18.916;2023-01-26T03:59:40;150538.09;;;0.73;100.00
51287;BME280;37364;46.974;18.916;2023-01-26T04:02:18;150539.38;;;0.74;100.00
51287;BME280;37364;46.974;18.916;2023-01-26T04:05:02;150534.22;;;0.72;100.00
51287;BME280;37364;46.974;18.916;2023-01-26T04:07:48;150539.38;;;0.74;100.00
51287;BME280;37364;46.974;18.916;2023-01-26T04:10:31;150525.22;;;0.68;100.00
51287;BME280;37364;46.974;18.916;2023-01-26T04:13:03;150522.69;;;0.67;100.00
51287;BME280;37364;46.974;18.916;2023-01-26T04:15:51;150535.50;;;0.72;100.00
51287;BME280;37364;46.974;18.916;2023-01-26T04:18:37;150534.22;;;0.72;100.00
51287;BME280;37364;46.974;18.916;2023-01-26T04:21:20;150536.81;;;0.73;100.00
51287;BME280;37364;46.974;18.916;2023-01-26T04:24:04;150535.50;;;0.72;100.00
51287;BME280;37364;46.974;18.916;2023-01-26T04:26:43;150543.22;;;0.75;100.00
51287;BME280;37364;46.974;18.916;2023-01-26T04:29:18;150534.22;;;0.72;100.00
51287;BME280;37364;46.974;18.916;2023-01-26T04:31:50;150536.81;;;0.73;100.00
51287;BME280;37364;46.974;18.916;2023-01-26T04:34:24;150535.50;;;0.72;100.00
51287;BME280;37364;46.974;18.916;2023-01-26T04:36:56;150526.53;;;0.69;100.00
51287;BME280;37364;46.974;18.916;2023-01-26T04:39:37;150530.38;;;0.70;100.00
51287;BME280;37364;46.974;18.916;2023-01-26T04:42:08;150514.94;;;0.64;100.00
51287;BME280;37364;46.974;18.916;2023-01-26T04:44:38;150534.22;;;0.72;100.00
51287;BME280;37364;46.974;18.916;2023-01-26T04:47:10;150516.22;;;0.65;100.00
51287;BME280;37364;46.974;18.916;2023-01-26T04:49:43;150521.41;;;0.67;100.00
51287;BME280;37364;46.974;18.916;2023-01-26T04:52:18;150527.81;;;0.69;100.00
51287;BME280;37364;46.974;18.916;2023-01-26T04:54:48;150522.69;;;0.67;100.00
51287;BME280;37364;46.974;18.916;2023-01-26T04:57:19;150516.22;;;0.65;100.00
51287;BME280;37364;46.974;18.916;2023-01-26T04:59:53;150529.09;;;0.70;100.00
51287;BME280;37364;46.974;18.916;2023-01-26T05:02:23;150523.94;;;0.68;100.00
51287;BME280;37364;46.974;18.916;2023-01-26T05:04:57;150516.22;;;0.65;100.00
51287;BME280;37364;46.974;18.916;2023-01-26T05:07:27;150527.81;;;0.69;100.00
51287;BME280;37364;46.974;18.916;2023-01-26T05:10:01;150513.69;;;0.64;100.00
51287;BME280;37364;46.974;18.916;2023-01-26T05:13:04;150502.13;;;0.59;100.00
51287;BME280;37364;46.974;18.916;2023-01-26T05:16:01;150511.09;;;0.63;100.00
51287;BME280;37364;46.974;18.916;2023-01-26T05:18:46;150507.25;;;0.61;100.00
51287;BME280;37364;46.974;18.916;2023-01-26T05:21:39;150504.69;;;0.60;100.00
51287;BME280;37364;46.974;18.916;2023-01-26T05:24:11;150498.28;;;0.57;100.00
51287;BME280;37364;46.974;18.916;2023-01-26T05:26:48;150507.25;;;0.61;100.00
51287;BME280;37364;46.974;18.916;2023-01-26T05:29:40;150500.81;;;0.58;100.00
51287;BME280;37364;46.974;18.916;2023-01-26T05:36:37;150489.25;;;0.54;100.00
51287;BME280;37364;46.974;18.916;2023-01-26T05:47:28;150481.53;;;0.51;100.00
51287;BME280;37364;46.974;18.916;2023-01-26T05:50:35;150486.66;;;0.53;100.00
51287;BME280;37364;46.974;18.916;2023-01-26T05:53:17;150479.00;;;0.50;100.00
51287;BME280;37364;46.974;18.916;2023-01-26T05:55:54;150473.84;;;0.48;100.00
51287;BME280;37364;46.974;18.916;2023-01-26T05:58:55;150463.56;;;0.44;100.00
51287;BME280;37364;46.974;18.916;2023-01-26T06:01:41;150464.84;;;0.44;100.00
51287;BME280;37364;46.974;18.916;2023-01-26T06:04:15;150459.72;;;0.42;100.00
51287;BME280;37364;46.974;18.916;2023-01-26T06:06:53;150475.13;;;0.48;100.00
51287;BME280;37364;46.974;18.916;2023-01-26T06:09:29;150459.72;;;0.42;100.00
51287;BME280;37364;46.974;18.916;2023-01-26T06:12:13;150469.97;;;0.46;100.00
51287;BME280;37364;46.974;18.916;2023-01-26T06:15:08;150468.72;;;0.46;100.00
51287;BME280;37364;46.974;18.916;2023-01-26T06:17:43;150467.44;;;0.45;100.00
51287;BME280;37364;46.974;18.916;2023-01-26T06:20:17;150468.72;;;0.46;100.00
51287;BME280;37364;46.974;18.916;2023-01-26T06:22:58;150472.59;;;0.47;100.00
51287;BME280;37364;46.974;18.916;2023-01-26T06:25:31;150462.25;;;0.43;100.00
51287;BME280;37364;46.974;18.916;2023-01-26T06:28:04;150463.56;;;0.44;100.00
51287;BME280;37364;46.974;18.916;2023-01-26T06:30:35;150480.25;;;0.50;100.00
51287;BME280;37364;46.974;18.916;2023-01-26T06:33:10;150494.41;;;0.56;100.00
51287;BME280;37364;46.974;18.916;2023-01-26T06:35:43;150485.41;;;0.52;100.00
51287;BME280;37364;46.974;18.916;2023-01-26T06:38:14;150489.25;;;0.54;100.00
51287;BME280;37364;46.974;18.916;2023-01-26T06:40:45;150486.66;;;0.53;100.00
51287;BME280;37364;46.974;18.916;2023-01-26T06:43:17;150491.84;;;0.55;100.00
51287;BME280;37364;46.974;18.916;2023-01-26T06:45:48;150490.53;;;0.54;100.00
51287;BME280;37364;46.974;18.916;2023-01-26T06:48:20;150497.00;;;0.57;100.00
51287;BME280;37364;46.974;18.916;2023-01-26T06:50:55;150495.66;;;0.56;100.00
51287;BME280;37364;46.974;18.916;2023-01-26T06:53:29;150490.53;;;0.54;100.00
51287;BME280;37364;46.974;18.916;2023-01-26T06:56:21;150495.66;;;0.56;100.00
51287;BME280;37364;46.974;18.916;2023-01-26T06:59:13;150502.13;;;0.59;100.00
51287;BME280;37364;46.974;18.916;2023-01-26T07:02:08;150513.69;;;0.64;100.00
51287;BME280;37364;46.974;18.916;2023-01-26T07:04:39;150495.66;;;0.56;100.00
51287;BME280;37364;46.974;18.916;2023-01-26T07:07:13;150503.41;;;0.59;100.00
51287;BME280;37364;46.974;18.916;2023-01-26T07:09:43;150509.81;;;0.62;100.00
51287;BME280;37364;46.974;18.916;2023-01-26T07:12:14;150508.53;;;0.62;100.00
51287;BME280;37364;46.974;18.916;2023-01-26T07:14:44;150497.00;;;0.57;100.00
51287;BME280;37364;46.974;18.916;2023-01-26T07:17:17;150509.81;;;0.62;100.00
51287;BME280;37364;46.974;18.916;2023-01-26T07:19:48;150512.41;;;0.63;100.00
51287;BME280;37364;46.974;18.916;2023-01-26T07:22:22;150518.81;;;0.66;100.00
51287;BME280;37364;46.974;18.916;2023-01-26T07:24:52;150531.69;;;0.71;100.00
51287;BME280;37364;46.974;18.916;2023-01-26T07:27:23;150530.38;;;0.70;100.00
51287;BME280;37364;46.974;18.916;2023-01-26T07:29:56;150538.09;;;0.73;100.00
51287;BME280;37364;46.974;18.916;2023-01-26T07:32:27;150535.50;;;0.72;100.00
51287;BME280;37364;46.974;18.916;2023-01-26T07:34:58;150529.09;;;0.70;100.00
51287;BME280;37364;46.974;18.916;2023-01-26T07:37:31;150538.09;;;0.73;100.00
51287;BME280;37364;46.974;18.916;2023-01-26T07:40:02;150513.69;;;0.64;100.00
51287;BME280;37364;46.974;18.916;2023-01-26T07:42:33;150532.97;;;0.71;100.00
51287;BME280;37364;46.974;18.916;2023-01-26T07:45:16;150556.09;;;0.81;100.00
51287;BME280;37364;46.974;18.916;2023-01-26T07:47:47;150554.78;;;0.80;100.00
51287;BME280;37364;46.974;18.916;2023-01-26T07:50:19;150554.78;;;0.80;100.00
51287;BME280;37364;46.974;18.916;2023-01-26T07:52:59;150561.25;;;0.83;100.00
51287;BME280;37364;46.974;18.916;2023-01-26T07:55:29;150561.25;;;0.83;100.00
51287;BME280;37364;46.974;18.916;2023-01-26T07:58:00;150541.97;;;0.75;100.00
51287;BME280;37364;46.974;18.916;2023-01-26T08:00:31;150556.09;;;0.81;100.00
51287;BME280;37364;46.974;18.916;2023-01-26T08:03:01;150545.78;;;0.76;100.00
51287;BME280;37364;46.974;18.916;2023-01-26T08:05:32;150554.78;;;0.80;100.00
51287;BME280;37364;46.974;18.916;2023-01-26T08:08:07;150566.38;;;0.85;100.00
51287;BME280;37364;46.974;18.916;2023-01-26T08:10:38;150576.66;;;0.89;100.00
51287;BME280;37364;46.974;18.916;2023-01-26T08:13:09;150592.06;;;0.95;100.00
51287;BME280;37364;46.974;18.916;2023-01-26T08:15:49;150588.22;;;0.93;100.00
51287;BME280;37364;46.974;18.916;2023-01-26T08:18:20;150607.50;;;1.01;100.00
51287;BME280;37364;46.974;18.916;2023-01-26T08:20:51;150603.63;;;0.99;100.00
51287;BME280;37364;46.974;18.916;2023-01-26T08:23:24;150592.06;;;0.95;100.00
51287;BME280;37364;46.974;18.916;2023-01-26T08:25:58;150586.94;;;0.93;100.00
51287;BME280;37364;46.974;18.916;2023-01-26T08:28:29;150604.94;;;1.00;100.00
51287;BME280;37364;46.974;18.916;2023-01-26T08:31:03;150625.50;;;1.08;100.00
51287;BME280;37364;46.974;18.916;2023-01-26T08:33:33;150629.38;;;1.10;100.00
51287;BME280;37364;46.974;18.916;2023-01-26T08:36:07;150633.19;;;1.11;100.00
51287;BME280;37364;46.974;18.916;2023-01-26T08:38:43;150646.06;;;1.16;100.00
51287;BME280;37364;46.974;18.916;2023-01-26T08:41:14;150656.34;;;1.21;100.00
51287;BME280;37364;46.974;18.916;2023-01-26T08:43:46;150660.22;;;1.22;100.00
51287;BME280;37364;46.974;18.916;2023-01-26T08:46:16;150679.50;;;1.30;100.00
51287;BME280;37364;46.974;18.916;2023-01-26T08:48:47;150665.34;;;1.24;100.00
51287;BME280;37364;46.974;18.916;2023-01-26T08:51:18;150678.16;;;1.29;100.00
51287;BME280;37364;46.974;18.916;2023-01-26T08:53:52;150671.75;;;1.27;100.00
51287;BME280;37364;46.974;18.916;2023-01-26T08:56:22;150679.50;;;1.30;100.00
51287;BME280;37364;46.974;18.916;2023-01-26T08:58:52;150692.31;;;1.35;100.00
51287;BME280;37364;46.974;18.916;2023-01-26T09:01:23;150685.91;;;1.32;100.00
51287;BME280;37364;46.974;18.916;2023-01-26T09:03:54;150687.19;;;1.33;100.00
51287;BME280;37364;46.974;18.916;2023-01-26T09:06:25;150705.19;;;1.40;100.00
51287;BME280;37364;46.974;18.916;2023-01-26T09:08:59;150694.91;;;1.36;100.00
51287;BME280;37364;46.974;18.916;2023-01-26T09:11:30;150678.16;;;1.29;100.00
51287;BME280;37364;46.974;18.916;2023-01-26T09:14:00;150689.78;;;1.34;100.00
51287;BME280;37364;46.974;18.916;2023-01-26T09:16:31;150698.78;;;1.37;100.00
51287;BME280;37364;46.974;18.916;2023-01-26T09:19:02;150689.78;;;1.34;100.00
51287;BME280;37364;46.974;18.916;2023-01-26T09:21:34;150685.91;;;1.32;100.00
51287;BME280;37364;46.974;18.916;2023-01-26T09:24:09;150701.34;;;1.38;100.00
51287;BME280;37364;46.974;18.916;2023-01-26T09:26:40;150725.75;;;1.48;100.00
51287;BME280;37364;46.974;18.916;2023-01-26T09:29:11;150730.91;;;1.50;100.00
51287;BME280;37364;46.974;18.916;2023-01-26T09:31:42;150697.47;;;1.37;100.00
51287;BME280;37364;46.974;18.916;2023-01-26T09:34:13;150716.75;;;1.45;100.00
51287;BME280;37364;46.974;18.916;2023-01-26T09:36:43;150737.31;;;1.53;100.00
51287;BME280;37364;46.974;18.916;2023-01-26T09:39:17;150730.91;;;1.50;100.00
51287;BME280;37364;46.974;18.916;2023-01-26T09:41:56;150702.59;;;1.39;100.00
51287;BME280;37364;46.974;18.916;2023-01-26T09:44:32;150727.03;;;1.49;100.00
51287;BME280;37364;46.974;18.916;2023-01-26T09:47:09;150728.34;;;1.49;100.00
51287;BME280;37364;46.974;18.916;2023-01-26T09:49:46;150752.78;;;1.59;100.00
51287;BME280;37364;46.974;18.916;2023-01-26T09:52:24;150772.09;;;1.67;100.00
51287;BME280;37364;46.974;18.916;2023-01-26T09:55:01;150769.50;;;1.66;100.00
51287;BME280;37364;46.974;18.916;2023-01-26T09:57:38;150770.75;;;1.66;100.00
51287;BME280;37364;46.974;18.916;2023-01-26T10:00:17;150737.31;;;1.53;100.00
51287;BME280;37364;46.974;18.916;2023-01-26T10:02:59;150710.34;;;1.42;100.00
51287;BME280;37364;46.974;18.916;2023-01-26T10:05:39;150728.34;;;1.49;100.00
51287;BME280;37364;46.974;18.916;2023-01-26T10:08:14;150738.66;;;1.53;100.00
51287;BME280;37364;46.974;18.916;2023-01-26T10:10:52;150732.19;;;1.51;100.00
51287;BME280;37364;46.974;18.916;2023-01-26T10:13:23;150743.78;;;1.55;100.00
51287;BME280;37364;46.974;18.916;2023-01-26T10:15:59;150721.91;;;1.47;100.00
51287;BME280;37364;46.974;18.916;2023-01-26T10:18:47;150696.19;;;1.36;100.00
51287;BME280;37364;46.974;18.916;2023-01-26T10:21:28;150719.34;;;1.46;100.00
51287;BME280;37364;46.974;18.916;2023-01-26T10:24:07;150750.19;;;1.58;100.00
51287;BME280;37364;46.974;18.916;2023-01-26T10:26:56;150751.47;;;1.58;100.00
51287;BME280;37364;46.974;18.916;2023-01-26T10:29:27;150725.75;;;1.48;100.00
51287;BME280;37364;46.974;18.916;2023-01-26T10:31:59;150748.91;;;1.57;100.00
51287;BME280;37364;46.974;18.916;2023-01-26T10:34:30;150716.75;;;1.45;100.00
51287;BME280;37364;46.974;18.916;2023-01-26T10:37:17;150700.06;;;1.38;100.00
51287;BME280;37364;46.974;18.916;2023-01-26T10:39:57;150703.94;;;1.40;100.00
51287;BME280;37364;46.974;18.916;2023-01-26T10:42:32;150676.91;;;1.29;100.00
51287;BME280;37364;46.974;18.916;2023-01-26T10:45:06;150693.66;;;1.35;100.00
51287;BME280;37364;46.974;18.916;2023-01-26T10:48:03;150683.38;;;1.31;100.00
51287;BME280;37364;46.974;18.916;2023-01-26T10:50:35;150691.06;;;1.34;100.00
51287;BME280;37364;46.974;18.916;2023-01-26T10:53:09;150707.75;;;1.41;100.00
51287;BME280;37364;46.974;18.916;2023-01-26T10:55:58;150703.94;;;1.40;100.00
51287;BME280;37364;46.974;18.916;2023-01-26T10:58:59;150739.91;;;1.54;100.00
51287;BME280;37364;46.974;18.916;2023-01-26T11:01:50;150700.06;;;1.38;100.00
51287;BME280;37364;46.974;18.916;2023-01-26T11:04:24;150720.63;;;1.46;100.00
51287;BME280;37364;46.974;18.916;2023-01-26T11:07:21;150684.63;;;1.32;100.00
51287;BME280;37364;46.974;18.916;2023-01-26T11:09:55;150652.47;;;1.19;100.00
51287;BME280;37364;46.974;18.916;2023-01-26T11:12:29;150684.63;;;1.32;100.00
51287;BME280;37364;46.974;18.916;2023-01-26T11:15:11;150660.22;;;1.22;100.00
51287;BME280;37364;46.974;18.916;2023-01-26T11:17:56;150669.22;;;1.26;100.00
51287;BME280;37364;46.974;18.916;2023-01-26T11:20:51;150665.34;;;1.24;100.00
51287;BME280;37364;46.974;18.916;2023-01-26T11:23:41;150696.19;;;1.36;100.00
51287;BME280;37364;46.974;18.916;2023-01-26T11:32:31;150720.63;;;1.46;100.00
51287;BME280;37364;46.974;18.916;2023-01-26T11:35:12;150712.94;;;1.43;100.00
51287;BME280;37364;46.974;18.916;2023-01-26T11:37:46;150709.06;;;1.42;100.00
51287;BME280;37364;46.974;18.916;2023-01-26T11:40:25;150716.75;;;1.45;100.00
51287;BME280;37364;46.974;18.916;2023-01-26T11:46:20;150720.63;;;1.46;100.00
51287;BME280;37364;46.974;18.916;2023-01-26T11:49:05;150718.06;;;1.45;100.00
51287;BME280;37364;46.974;18.916;2023-01-26T11:51:50;150710.34;;;1.42;100.00
51287;BME280;37364;46.974;18.916;2023-01-26T11:54:39;150707.75;;;1.41;100.00
51287;BME280;37364;46.974;18.916;2023-01-26T11:57:19;150705.19;;;1.40;100.00
51287;BME280;37364;46.974;18.916;2023-01-26T11:59:57;150711.63;;;1.43;100.00
51287;BME280;37364;46.974;18.916;2023-01-26T12:02:39;150709.06;;;1.42;100.00
51287;BME280;37364;46.974;18.916;2023-01-26T12:05:20;150712.94;;;1.43;100.00
51287;BME280;37364;46.974;18.916;2023-01-26T12:07:55;150694.91;;;1.36;100.00
51287;BME280;37364;46.974;18.916;2023-01-26T12:10:32;150706.47;;;1.41;100.00
51287;BME280;37364;46.974;18.916;2023-01-26T12:13:09;150709.06;;;1.42;100.00
51287;BME280;37364;46.974;18.916;2023-01-26T12:15:48;150727.03;;;1.49;100.00
51287;BME280;37364;46.974;18.916;2023-01-26T12:18:22;150721.91;;;1.47;100.00
51287;BME280;37364;46.974;18.916;2023-01-26T12:21:11;150750.19;;;1.58;100.00
51287;BME280;37364;46.974;18.916;2023-01-26T12:23:53;150741.19;;;1.54;100.00
51287;BME280;37364;46.974;18.916;2023-01-26T12:27:04;150709.06;;;1.42;100.00
51287;BME280;37364;46.974;18.916;2023-01-26T12:29:47;150707.75;;;1.41;100.00
51287;BME280;37364;46.974;18.916;2023-01-26T12:32:19;150739.91;;;1.54;100.00
51287;BME280;37364;46.974;18.916;2023-01-26T12:34:51;150701.34;;;1.38;100.00
51287;BME280;37364;46.974;18.916;2023-01-26T12:37:45;150714.22;;;1.44;100.00
51287;BME280;37364;46.974;18.916;2023-01-26T12:40:35;150707.75;;;1.41;100.00
51287;BME280;37364;46.974;18.916;2023-01-26T12:43:39;150696.19;;;1.36;100.00
51287;BME280;37364;46.974;18.916;2023-01-26T12:46:45;150693.66;;;1.35;100.00
51287;BME280;37364;46.974;18.916;2023-01-26T12:49:35;150671.75;;;1.27;100.00
51287;BME280;37364;46.974;18.916;2023-01-26T12:52:16;150698.78;;;1.37;100.00
51287;BME280;37364;46.974;18.916;2023-01-26T12:54:56;150698.78;;;1.37;100.00
51287;BME280;37364;46.974;18.916;2023-01-26T12:57:41;150716.75;;;1.45;100.00
51287;BME280;37364;46.974;18.916;2023-01-26T13:01:01;150702.59;;;1.39;100.00
51287;BME280;37364;46.974;18.916;2023-01-26T13:04:29;150703.94;;;1.40;100.00
51287;BME280;37364;46.974;18.916;2023-01-26T13:07:33;150674.34;;;1.28;100.00
51287;BME280;37364;46.974;18.916;2023-01-26T13:10:42;150670.50;;;1.26;100.00
51287;BME280;37364;46.974;18.916;2023-01-26T13:13:51;150675.63;;;1.28;100.00
51287;BME280;37364;46.974;18.916;2023-01-26T13:16:39;150665.34;;;1.24;100.00
51287;BME280;37364;46.974;18.916;2023-01-26T13:19:35;150688.50;;;1.33;100.00
51287;BME280;37364;46.974;18.916;2023-01-26T13:22:39;150701.34;;;1.38;100.00
51287;BME280;37364;46.974;18.916;2023-01-26T13:25:20;150656.34;;;1.21;100.00
51287;BME280;37364;46.974;18.916;2023-01-26T13:28:02;150669.22;;;1.26;100.00
51287;BME280;37364;46.974;18.916;2023-01-26T13:30:44;150667.91;;;1.25;100.00
51287;BME280;37364;46.974;18.916;2023-01-26T13:33:21;150689.78;;;1.34;100.00
51287;BME280;37364;46.974;18.916;2023-01-26T13:35:58;150689.78;;;1.34;100.00
51287;BME280;37364;46.974;18.916;2023-01-26T13:38:35;150678.16;;;1.29;100.00
51287;BME280;37364;46.974;18.916;2023-01-26T13:41:17;150658.94;;;1.22;100.00
51287;BME280;37364;46.974;18.916;2023-01-26T13:44:06;150666.63;;;1.25;100.00
51287;BME280;37364;46.974;18.916;2023-01-26T13:46:42;150643.47;;;1.15;100.00
51287;BME280;37364;46.974;18.916;2023-01-26T13:49:24;150653.75;;;1.19;100.00
51287;BME280;37364;46.974;18.916;2023-01-26T13:52:00;150669.22;;;1.26;100.00
51287;BME280;37364;46.974;18.916;2023-01-26T13:54:40;150671.75;;;1.27;100.00
51287;BME280;37364;46.974;18.916;2023-01-26T13:57:31;150664.06;;;1.24;100.00
51287;BME280;37364;46.974;18.916;2023-01-26T14:00:23;150649.94;;;1.18;100.00
51287;BME280;37364;46.974;18.916;2023-01-26T14:02:53;150649.94;;;1.18;100.00
51287;BME280;37364;46.974;18.916;2023-01-26T14:05:28;150638.31;;;1.13;100.00
51287;BME280;37364;46.974;18.916;2023-01-26T14:08:01;150640.94;;;1.14;100.00
51287;BME280;37364;46.974;18.916;2023-01-26T14:10:32;150647.34;;;1.17;100.00
51287;BME280;37364;46.974;18.916;2023-01-26T14:13:02;150628.06;;;1.09;100.00
51287;BME280;37364;46.974;18.916;2023-01-26T14:15:36;150608.75;;;1.02;100.00
51287;BME280;37364;46.974;18.916;2023-01-26T14:18:19;150635.78;;;1.12;100.00
51287;BME280;37364;46.974;18.916;2023-01-26T14:20:59;150640.94;;;1.14;100.00
51287;BME280;37364;46.974;18.916;2023-01-26T14:23:33;150635.78;;;1.12;100.00
51287;BME280;37364;46.974;18.916;2023-01-26T14:26:17;150633.19;;;1.11;100.00
51287;BME280;37364;46.974;18.916;2023-01-26T14:28:54;150622.91;;;1.07;100.00
51287;BME280;37364;46.974;18.916;2023-01-26T14:31:32;150625.50;;;1.08;100.00
51287;BME280;37364;46.974;18.916;2023-01-26T14:34:08;150635.78;;;1.12;100.00
51287;BME280;37364;46.974;18.916;2023-01-26T14:36:40;150610.09;;;1.02;100.00
51287;BME280;37364;46.974;18.916;2023-01-26T14:39:16;150615.22;;;1.04;100.00
51287;BME280;37364;46.974;18.916;2023-01-26T14:41:48;150631.91;;;1.11;100.00
51287;BME280;37364;46.974;18.916;2023-01-26T14:44:19;150604.94;;;1.00;100.00
51287;BME280;37364;46.974;18.916;2023-01-26T14:46:56;150603.63;;;0.99;100.00
51287;BME280;37364;46.974;18.916;2023-01-26T14:49:37;150625.50;;;1.08;100.00
51287;BME280;37364;46.974;18.916;2023-01-26T14:52:21;150619.03;;;1.06;100.00
51287;BME280;37364;46.974;18.916;2023-01-26T14:54:53;150613.91;;;1.04;100.00
51287;BME280;37364;46.974;18.916;2023-01-26T14:57:26;150598.47;;;0.97;100.00
51287;BME280;37364;46.974;18.916;2023-01-26T14:59:58;150594.63;;;0.96;100.00
51287;BME280;37364;46.974;18.916;2023-01-26T15:02:38;150584.34;;;0.92;100.00
51287;BME280;37364;46.974;18.916;2023-01-26T15:05:13;150580.53;;;0.90;100.00
51287;BME280;37364;46.974;18.916;2023-01-26T15:07:45;150581.78;;;0.91;100.00
51287;BME280;37364;46.974;18.916;2023-01-26T15:10:33;150594.63;;;0.96;100.00
51287;BME280;37364;46.974;18.916;2023-01-26T15:13:18;150579.19;;;0.90;100.00
51287;BME280;37364;46.974;18.916;2023-01-26T15:16:02;150566.38;;;0.85;100.00
51287;BME280;37364;46.974;18.916;2023-01-26T15:18:37;150565.06;;;0.84;100.00
51287;BME280;37364;46.974;18.916;2023-01-26T15:21:18;150565.06;;;0.84;100.00
51287;BME280;37364;46.974;18.916;2023-01-26T15:23:53;150571.53;;;0.87;100.00
51287;BME280;37364;46.974;18.916;2023-01-26T15:26:26;150575.38;;;0.88;100.00
51287;BME280;37364;46.974;18.916;2023-01-26T15:28:58;150556.09;;;0.81;100.00
51287;BME280;37364;46.974;18.916;2023-01-26T15:31:33;150566.38;;;0.85;100.00
51287;BME280;37364;46.974;18.916;2023-01-26T15:34:30;150563.78;;;0.84;100.00
51287;BME280;37364;46.974;18.916;2023-01-26T15:37:27;150561.25;;;0.83;100.00
51287;BME280;37364;46.974;18.916;2023-01-26T15:40:00;150556.09;;;0.81;100.00
51287;BME280;37364;46.974;18.916;2023-01-26T15:42:38;150563.78;;;0.84;100.00
51287;BME280;37364;46.974;18.916;2023-01-26T15:45:20;150549.66;;;0.78;100.00
51287;BME280;37364;46.974;18.916;2023-01-26T15:48:07;150552.25;;;0.79;100.00
51287;BME280;37364;46.974;18.916;2023-01-26T15:50:42;150552.25;;;0.79;100.00
51287;BME280;37364;46.974;18.916;2023-01-26T15:53:14;150553.50;;;0.79;100.00
51287;BME280;37364;46.974;18.916;2023-01-26T15:55:46;150545.78;;;0.76;100.00
51287;BME280;37364;46.974;18.916;2023-01-26T15:58:19;150545.78;;;0.76;100.00
51287;BME280;37364;46.974;18.916;2023-01-26T16:00:49;150549.66;;;0.78;100.00
51287;BME280;37364;46.974;18.916;2023-01-26T16:03:22;150548.38;;;0.77;100.00
51287;BME280;37364;46.974;18.916;2023-01-26T16:05:58;150545.78;;;0.76;100.00